Weather observations for the past three days for
Beef Island
Metric (Imperial)
Date Time (ast) Wind (kph) Vis. (km) Weather Sky Cond. Temperature (ºC) Relative Humidity Wind Chill (°C) Heat Index (°C) Pressure Precipitation (cm)
Air Dwpt 6 hour altimeter (cm) sea level (mb) 1 hr 3 hr 6 hr
Max. Min.
31 08:00 SE 15 16.09 Showers in Vicinity SCT018 28 24 79% 32 76.15 0.0
31 07:00 SE 20 16.09 Showers in Vicinity BKN018 27 24 84% 30 76.02 0.0
30 22:00 E 11 16.09 Light Rain FEW006 BKN017 27 25 89% 31 76.23 0.0
30 21:00 E 11 16.09 A Few Clouds FEW016 27 25 89% 31 76.15 0.0
30 20:00 E 13 16.09 A Few Clouds FEW014 27 24 84% 30 76.1 0.0
30 18:00 E 17 16.09 A Few Clouds FEW017 28 25 84% 33 76.05 0.0
30 17:00 E 11 16.09 Showers in Vicinity FEW016 27 25 89% 31 76 0.0
30 16:00 E 11 16.09 Showers in Vicinity FEW014 27 25 89% 31 76 0.0
30 15:00 E 20 16.09 Light Showers Rain FEW009 SCT017 BKN040 27 23 79% 30 76.02 0.0
30 14:00 SE 15 16.09 Showers in Vicinity FEW019 29 25 79% 35 76.02 0.0
30 12:00 S 24 16.09 Mostly Cloudy BKN018 29 26 84% 36 76.05 0.0
30 11:00 S 20 16.09 Partly Cloudy SCT018 28 26 89% 34 75.97 0.0
30 10:00 E 22 16.09 Showers in Vicinity SCT018 28 25 84% 33 76.1 0.0
30 09:00 E 26 16.09 Showers in Vicinity FEW009 SCT018 28 26 89% 34 75.95 0.0
30 08:00 NE 19 16.09 Showers in Vicinity BKN018 28 26 89% 34 75.95 0.0
30 07:00 NE 19 16.09 Showers in Vicinity BKN019 28 26 89% 34 75.95 0.0
29 22:00 NE 19 16.09 Partly Cloudy SCT020 29 26 84% 36 76.15 0.0
29 21:00 NE 15 16.09 Mostly Cloudy BKN019 29 26 84% 36 76.12 0.0
29 19:00 NE 13 16.09 Mostly Cloudy BKN018 29 26 84% 36 76.07 0.0
29 18:00 NE 13 16.09 Mostly Cloudy BKN019 30 26 79% 37 76.1 0.0
29 17:00 NE 15 16.09 NULL NULL 31 26 75% 39 76.07 0.0
29 16:00 NE 17 16.09 Partly Cloudy SCT019 32 26 71% 41 76.07 0.0
29 15:00 NE 17 16.09 Partly Cloudy SCT019 31 25 70% 38 76.1 0.0
29 14:00 NE 17 16.09 A Few Clouds FEW020 33 26 67% 42 76.12 0.0
29 13:00 NE 20 16.09 Partly Cloudy SCT020 31 25 70% 38 76.17 0.0
29 12:00 NE 19 16.09 Partly Cloudy SCT022 32 26 71% 41 76.2 0.0
29 11:00 E 20 16.09 Partly Cloudy SCT022 32 25 67% 39 76.23 0.0
29 10:00 E 17 16.09 Partly Cloudy SCT021 31 25 70% 38 76.23 0.0
29 09:00 E 17 16.09 A Few Clouds FEW021 30 25 75% 36 76.23 0.0
29 08:00 E 20 16.09 A Few Clouds FEW018 30 25 75% 36 76.17 0.0
29 07:00 E 20 16.09 A Few Clouds FEW018 29 25 79% 35 76.12 0.0
28 22:00 E 15 16.09 Mostly Cloudy BKN018 29 25 79% 35 76.15 0.0
28 21:00 E 15 16.09 Mostly Cloudy BKN018 29 25 79% 35 76.15 0.0
28 20:00 E 15 16.09 Partly Cloudy SCT018 28 25 84% 33 76.12 0.0
28 19:00 E 11 16.09 Light Showers Rain BKN018 SCT042 28 25 84% 33 76.07 0.0
28 18:00 E 26 16.09 Light Showers Rain FEW015 BKN018 29 24 74% 34 76.1 0.0
28 17:00 E 20 16.09 Showers in Vicinity SCT018 BKN042 31 24 66% 37 76.07 0.0
28 16:00 E 22 16.09 Partly Cloudy SCT019 31 24 66% 37 76.05 0.0
28 15:00 E 20 16.09 Partly Cloudy SCT019 31 24 66% 37 76.07 0.0
28 14:00 E 20 16.09 A Few Clouds FEW022 31 24 66% 37 76.12 0.0
28 13:00 E 19 16.09 Partly Cloudy SCT022 32 24 63% 38 76.17 0.0
28 12:00 E 22 16.09 Partly Cloudy SCT021 31 24 66% 37 76.23 0.0
28 11:00 E 19 16.09 Partly Cloudy SCT021 31 24 66% 37 76.23 0.0
28 10:00 E 15 16.09 Mostly Cloudy BKN019 30 25 75% 36 76.23 0.0
28 09:00 E 15 16.09 Showers in Vicinity SCT018 30 25 75% 36 76.23 0.0
Date Time (ast) Wind (kph) Vis. (km) Weather Sky Cond. Air Dwpt Max. Min. Relative Humidity Wind Chill (°C) Heat Index (°C) altimeter (cm) sea level (mb) 1 hr 3 hr 6 hr
6 hour
Temperature (ºC) Pressure Precipitation (cm)